• Join FlightAware (Why Join?)
  • Login
  • US Flag 
04:28AM EST


 

Airport Tracker/Info


-or-


 

Live Flight TrackerFlight Track Log ✈ N120RH ✈ 14-Apr-2013 ✈ 15J - KPBX

Flight Track Log - Related Links

Times and Time Zones

All times are in EDT time to prevent confusion due to time zone crossing. See the N120RH flight status page for this flight to view local times or setup timezone preferences in your user account.

Time Position Orientation Groundspeed Altitude Reporting Facility
EDT Latitude Longitude Course Direction KTS MPH feet Rate Location/Type
12:21PM 31.1733 -83.4706 26° Northeast 120 138 1,700  Level Jacksonville Center
12:22PM 31.1986 -83.4561 26° Northeast 109 125 2,500 835 Climbing Jacksonville Center
12:23PM 31.2258 -83.4417 24° Northeast 106 122 3,300 744 Climbing Jacksonville Center
12:24PM 31.2531 -83.4319 17° North 111 128 4,000 744 Climbing Jacksonville Center
12:25PM 31.2886 -83.4322 360° North 117 135 4,800 694 Climbing Jacksonville Center
12:26PM 31.3239 -83.4275 North 123 142 5,400 539 Climbing Jacksonville Center
12:27PM 31.3386 -83.4228 15° North 128 147 5,600 590 Climbing Jacksonville Center
12:27PM 31.3617 -83.4181 10° North 131 151 6,000 600 Climbing Jacksonville Center
12:28PM 31.3761 -83.4158 North 134 154 6,200 500 Climbing Jacksonville Center
12:28PM 31.3992 -83.4111 10° North 139 160 6,500 500 Climbing Jacksonville Center
12:29PM 31.4139 -83.4086 North 145 167 6,700 492 Climbing Jacksonville Center
12:29PM 31.4411 -83.4064 North 145 167 7,000 300 Climbing Jacksonville Center
12:30PM 31.4556 -83.4017 16° North 158 182 7,000 70 Level Jacksonville Center
12:31PM 31.5036 -83.3969 North 165 190 7,100 50 Climbing Jacksonville Center
12:32PM 31.5517 -83.3922 North 170 196 7,100  Level Jacksonville Center
12:33PM 31.6019 -83.3878 North 170 196 7,100 -50 Level Jacksonville Center
12:34PM 31.6542 -83.3808 North 180 207 7,000 -50 Descending Jacksonville Center
12:35PM 31.7042 -83.3736 North 180 207 7,000  Level Jacksonville Center
12:36PM 31.7544 -83.3617 11° North 180 207 7,000  Level Jacksonville Center
12:37PM 31.8044 -83.3472 14° North 180 207 7,000  Level Jacksonville Center
12:38PM 31.8525 -83.3256 21° North 180 207 7,000  Level Jacksonville Center
12:39PM 31.8986 -83.3086 17° North 180 207 7,000  Level Jacksonville Center
12:40PM 31.9467 -83.2917 17° North 180 207 7,000  Level Jacksonville Center
12:41PM 31.9906 -83.2747 18° North 175 201 7,000  Level Jacksonville Center
12:42PM 32.0386 -83.2578 17° North 170 196 7,000  Level Jacksonville Center
12:43PM 32.1167 -83.2333 15° North 163 188 7,000  Level Atlanta TRACON
12:44PM 32.1500 -83.2167 23° Northeast 163 188 7,000 -50 Level Atlanta TRACON
12:45PM 32.2000 -83.2167 360° North 166 191 6,900  Descending Atlanta TRACON
12:46PM 32.2500 -83.2000 16° North 167 192 7,000 50 Climbing Atlanta TRACON
12:47PM 32.3000 -83.1833 16° North 166 191 7,000  Level Atlanta TRACON
12:48PM 32.3333 -83.1833 360° North 172 198 7,000  Level Atlanta TRACON
12:49PM 32.3833 -83.1667 16° North 169 194 7,000  Level Atlanta TRACON
12:51PM 32.4333 -83.1500 16° North 167 192 7,000 48 Level Atlanta TRACON
12:52PM 32.4667 -83.1500 360° North 162 186 7,100  Climbing Atlanta TRACON
12:53PM 32.5167 -83.1333 16° North 171 197 7,000  Descending Atlanta TRACON
12:54PM 32.5667 -83.1333 360° North 167 192 7,100 -50 Climbing Atlanta TRACON
12:55PM 32.6167 -83.1333 360° North 165 190 6,900 -50 Descending Atlanta TRACON
12:56PM 32.6500 -83.1167 23° Northeast 160 184 7,000 50 Climbing Atlanta TRACON
12:57PM 32.7000 -83.1167 360° North 160 184 7,000  Level Atlanta TRACON
12:57PM 32.7500 -83.1167 360° North 162 186 7,000  Level Atlanta TRACON
12:58PM 32.7833 -83.1000 23° Northeast 161 185 7,000  Level Atlanta TRACON
12:59PM 32.8333 -83.1000 360° North 168 193 7,000 -50 Level Atlanta TRACON
01:00PM 32.8833 -83.1000 360° North 164 189 6,900 50 Descending Atlanta TRACON
01:01PM 32.9167 -83.0833 23° Northeast 153 176 7,100 50 Climbing Atlanta TRACON
01:02PM 32.9667 -83.0833 360° North 166 191 7,000 -48 Descending Atlanta TRACON
01:04PM 33.0167 -83.0833 360° North 167 192 7,000  Level Atlanta TRACON
01:05PM 33.0667 -83.0667 16° North 166 191 7,000  Level Atlanta TRACON
01:06PM 33.1167 -83.0667 360° North 169 194 7,000 -50 Level Atlanta TRACON
01:07PM 33.1667 -83.0667 360° North 167 192 6,900  Descending Atlanta TRACON
01:08PM 33.2000 -83.0667 360° North 167 192 7,000  Climbing Atlanta TRACON
01:08PM 33.2500 -83.0500 16° North 160 184 6,900  Descending Atlanta TRACON
01:10PM 33.3000 -83.0500 360° North 162 186 7,000 48 Climbing Atlanta TRACON
01:11PM 33.3333 -83.0333 23° Northeast 166 191 7,000 -50 Level Atlanta TRACON
01:12PM 33.3833 -83.0333 360° North 162 186 6,900  Descending Atlanta TRACON
01:13PM 33.4333 -83.0333 360° North 158 182 7,000 100 Climbing Atlanta TRACON
01:14PM 33.4833 -83.0167 16° North 172 198 7,100 50 Climbing Atlanta TRACON
01:15PM 33.5333 -83.0167 360° North 174 200 7,100 -50 Level Atlanta TRACON
01:16PM 33.5833 -83.0167 360° North 181 208 7,000  Descending Atlanta TRACON
01:17PM 33.6333 -83.0167 360° North 180 207 7,100 53 Climbing Atlanta TRACON
01:17PM 33.6667 -83.0000 23° Northeast 178 205 7,100 -55 Level Atlanta TRACON
01:18PM 33.7106 -83.0050 355° North 179 206 7,000 -52 Descending Atlanta Center
01:19PM 33.7606 -82.9994 North 186 214 7,000 50 Level Atlanta Center
01:20PM 33.8086 -82.9936 North 180 207 7,100 50 Climbing Atlanta Center
01:21PM 33.8586 -82.9881 North 180 207 7,100  Level Atlanta Center
01:22PM 33.9067 -82.9825 North 180 207 7,100  Level Atlanta Center
01:23PM 33.9567 -82.9769 North 175 201 7,100  Level Atlanta Center
01:24PM 34.0025 -82.9714 North 175 201 7,100 -100 Level Atlanta Center
01:25PM 34.0525 -82.9658 North 175 201 6,900 -50 Descending Atlanta Center
01:26PM 34.1006 -82.9625 North 175 201 7,000 50 Climbing Atlanta Center
01:27PM 34.1464 -82.9569 North 175 201 7,000  Level Atlanta Center
01:28PM 34.1964 -82.9489 North 180 207 7,000  Level Atlanta Center
01:29PM 34.2444 -82.9456 North 174 200 7,000 50 Level Atlanta Center
01:30PM 34.2903 -82.9400 North 174 200 7,100 50 Climbing Atlanta Center
01:31PM 34.3361 -82.9344 North 164 189 7,100  Level Atlanta Center
01:32PM 34.3842 -82.9289 North 164 189 7,100  Level Atlanta Center
01:33PM 34.4319 -82.9256 North 164 189 7,100  Level Atlanta Center
01:34PM 34.4800 -82.9200 North 164 189 7,100  Level Atlanta Center
01:35PM 34.5281 -82.9167 North 164 189 7,100  Level Atlanta Center
01:36PM 34.5758 -82.9111 North 164 189 7,100  Level Atlanta Center
01:37PM 34.6239 -82.9028 North 164 189 7,100  Level Atlanta Center
01:38PM 34.6739 -82.8997 North 169 194 7,100 34 Level Atlanta Center
01:40PM 34.7248 -82.8858 13° North  Level FlightAware Approximate
01:47PM 35.0380 -82.8182 North  Level FlightAware Approximate
01:48PM 35.0833 -82.8143 North  Level FlightAware Approximate
01:49PM 35.1286 -82.8111 North  Level FlightAware Approximate
01:50PM 35.1740 -82.8079 North  Level FlightAware Approximate
01:51PM 35.2193 -82.8046 North  Level FlightAware Approximate
01:52PM 35.2646 -82.8014 North  Level FlightAware Approximate
01:53PM 35.3099 -82.7981 North  Level FlightAware Approximate
01:54PM 35.3553 -82.7949 North  Level FlightAware Approximate
01:55PM 35.4006 -82.7917 North  Level FlightAware Approximate
01:56PM 35.4459 -82.7884 North  Level FlightAware Approximate
01:57PM 35.4914 -82.7852 North  Level FlightAware Approximate
01:58PM 35.5368 -82.7820 North  Level FlightAware Approximate
01:59PM 35.5823 -82.7787 North  Level FlightAware Approximate
02:00PM 35.6277 -82.7755 North  Level FlightAware Approximate
02:01PM 35.6732 -82.7722 North  Level FlightAware Approximate
02:02PM 35.7187 -82.7690 North  Level FlightAware Approximate
02:03PM 35.7641 -82.7657 North  Level FlightAware Approximate
02:04PM 35.8096 -82.7625 North  Level FlightAware Approximate
02:05PM 35.8550 -82.7592 North  Level FlightAware Approximate
02:06PM 35.9005 -82.7560 North  Level FlightAware Approximate
02:07PM 35.9460 -82.7527 North  Level FlightAware Approximate
02:07PM 36.0453 -82.7408 North 169 194 8,100  Level Indianapolis Center
02:08PM 35.9917 -82.7489 North  Level FlightAware Approximate
02:08PM 36.0911 -82.7356 North 166 191 8,200  Level Indianapolis Center
02:09PM 36.0370 -82.7430 North  Level FlightAware Approximate
02:09PM 36.1364 -82.7306 North 164 189 8,100  Level Indianapolis Center
02:10PM 36.0823 -82.7371 North  Level FlightAware Approximate
02:10PM 36.1825 -82.7258 North 165 190 8,100  Level Indianapolis Center
02:11PM 36.1276 -82.7311 North  Level FlightAware Approximate
02:11PM 36.2292 -82.7214 North 166 191 8,100  Level Indianapolis Center
02:12PM 36.1729 -82.7252 North  Level FlightAware Approximate
02:12PM 36.2814 -82.7136 North 163 188 8,100  Level Indianapolis Center
02:13PM 36.3275 -82.7072 North 164 189 8,100  Level Indianapolis Center
02:14PM 36.3739 -82.7019 North 167 192 8,100  Level Indianapolis Center
02:15PM 36.4208 -82.6972 North 168 193 8,100  Level Indianapolis Center
02:16PM 36.4689 -82.6928 North 172 198 8,100  Level Indianapolis Center
02:17PM 36.5167 -82.6872 North 173 199 8,100  Level Indianapolis Center
02:18PM 36.5714 -82.6808 North 170 196 8,100  Level Indianapolis Center
02:19PM 36.6175 -82.6750 North 167 192 8,100  Level Indianapolis Center
02:20PM 36.6636 -82.6686 North 167 192 8,100 -48 Level Indianapolis Center
02:21PM 36.7103 -82.6636 North 167 192 8,000 -48 Descending Indianapolis Center
02:22PM 36.7567 -82.6586 North 168 193 8,000 48 Level Indianapolis Center
02:23PM 36.8114 -82.6531 North 169 194 8,100 49 Climbing Indianapolis Center
02:24PM 36.8578 -82.6478 North 168 193 8,100 49 Level Indianapolis Center
02:25PM 36.9047 -82.6403 North 170 196 8,200  Climbing Indianapolis Center
02:26PM 36.9514 -82.6333 North 170 196 8,100  Descending Indianapolis Center
02:27PM 36.9986 -82.6297 North 170 196 8,200 48 Climbing Indianapolis Center
02:28PM 37.0536 -82.6244 North 170 196 8,200  Level Indianapolis Center
02:29PM 37.1006 -82.6189 North 170 196 8,200 -97 Level Indianapolis Center
02:30PM 37.1486 -82.6161 North 171 197 8,000 -339 Descending Indianapolis Center
02:31PM 37.1975 -82.6086 North 174 200 7,500 -532 Descending Indianapolis Center
02:33PM 37.2464 -82.5981 10° North 176 203 6,900 -532 Descending Indianapolis Center
02:34PM 37.2928 -82.5825 15° North 175 201 6,400 -435 Descending Indianapolis Center
02:35PM 37.3461 -82.5658 14° North 171 197 6,000 -629 Descending Indianapolis Center
02:36PM 37.3903 -82.5536 12° North 166 191 5,100 -871 Descending Indianapolis Center
02:37PM 37.4319 -82.5406 14° North 160 184 4,200 -871 Descending Indianapolis Center